createdAt,value
2017-03-01T00:00:40.964Z,18.51
2017-03-01T00:01:33.927Z,18.49
2017-03-01T00:02:36.644Z,18.50
2017-03-01T00:03:34.326Z,18.50
2017-03-01T00:04:30.125Z,18.49
2017-03-01T00:05:49.558Z,18.50
2017-03-01T00:06:37.955Z,18.49
2017-03-01T00:07:34.009Z,18.49
2017-03-01T00:08:34.045Z,18.64
2017-03-01T00:09:47.196Z,18.53
2017-03-01T00:10:36.847Z,18.52
2017-03-01T00:11:38.915Z,18.51
2017-03-01T00:12:46.644Z,18.99
2017-03-01T00:13:35.989Z,19.04
2017-03-01T00:14:38.437Z,19.07
2017-03-01T00:15:42.832Z,18.77
2017-03-01T00:16:42.792Z,18.57
2017-03-01T00:17:34.921Z,18.53
2017-03-01T00:18:41.013Z,18.52
2017-03-01T00:19:46.171Z,18.50
2017-03-01T00:20:42.165Z,18.50
2017-03-01T00:21:42.189Z,18.49
2017-03-01T00:22:42.179Z,18.49
2017-03-01T00:23:36.945Z,18.48
2017-03-01T00:24:36.457Z,18.48
2017-03-01T00:25:47.117Z,18.48
2017-03-01T00:26:47.978Z,18.48
2017-03-01T00:27:48.272Z,18.53
2017-03-01T00:28:33.848Z,18.51
2017-03-01T00:29:44.013Z,18.99
2017-03-01T00:30:32.410Z,18.52
2017-03-01T00:31:42.485Z,18.50
2017-03-01T00:32:34.164Z,18.52
2017-03-01T00:33:43.691Z,18.52
2017-03-01T00:34:38.693Z,18.52
2017-03-01T00:35:51.943Z,18.47
2017-03-01T00:36:38.888Z,18.47
2017-03-01T00:37:47.921Z,18.48
2017-03-01T00:38:37.938Z,18.47
2017-03-01T00:39:41.097Z,18.47
2017-03-01T00:40:37.801Z,18.46
2017-03-01T00:41:27.644Z,18.47
2017-03-01T00:42:34.822Z,18.46
2017-03-01T00:43:42.758Z,18.46
2017-03-01T00:44:38.747Z,18.46
2017-03-01T00:45:50.007Z,18.47
2017-03-01T00:46:47.250Z,18.46
2017-03-01T00:47:52.763Z,18.46
2017-03-01T00:48:41.190Z,18.45
2017-03-01T00:49:43.937Z,18.45
2017-03-01T00:50:42.589Z,18.46
2017-03-01T00:51:38.315Z,18.45
2017-03-01T00:52:33.319Z,18.46
2017-03-01T00:53:37.576Z,18.46
2017-03-01T00:54:38.656Z,18.46
2017-03-01T00:55:39.080Z,18.51
2017-03-01T00:56:39.701Z,18.45
2017-03-01T00:57:35.122Z,18.44
2017-03-01T00:58:36.029Z,18.46
2017-03-01T00:59:43.827Z,18.50
2017-03-01T01:00:38.741Z,18.45
2017-03-01T01:01:44.006Z,18.46
2017-03-01T01:02:38.469Z,18.45
2017-03-01T01:03:42.154Z,18.45
2017-03-01T01:04:35.187Z,18.47
2017-03-01T01:05:38.908Z,18.45
2017-03-01T01:06:40.895Z,18.45
2017-03-01T01:07:38.016Z,18.44
2017-03-01T01:08:50.185Z,18.44
2017-03-01T01:09:38.398Z,18.51
2017-03-01T01:10:38.161Z,18.44
2017-03-01T01:11:44.498Z,18.44
2017-03-01T01:12:42.564Z,18.44
2017-03-01T01:13:37.974Z,18.49
2017-03-01T01:14:47.316Z,18.95
2017-03-01T01:15:52.270Z,19.02
2017-03-01T01:16:43.529Z,19.03
2017-03-01T01:17:39.514Z,19.05
2017-03-01T01:18:37.886Z,19.06
2017-03-01T01:19:43.002Z,19.06
2017-03-01T01:20:43.351Z,18.68
2017-03-01T01:21:32.390Z,18.55
2017-03-01T01:22:42.979Z,18.50
2017-03-01T01:23:43.513Z,18.48
2017-03-01T01:24:42.631Z,18.48
2017-03-01T01:25:37.966Z,18.49
2017-03-01T01:26:34.083Z,18.46
2017-03-01T01:27:33.072Z,18.46
2017-03-01T01:28:48.264Z,18.44
2017-03-01T01:29:43.812Z,18.46
2017-03-01T01:30:50.283Z,18.44
2017-03-01T01:31:43.530Z,18.45
2017-03-01T01:32:43.837Z,18.44
2017-03-01T01:33:38.314Z,18.44
2017-03-01T01:34:37.830Z,18.44
2017-03-01T01:35:33.975Z,18.45
2017-03-01T01:36:38.009Z,18.44
2017-03-01T01:37:33.873Z,18.44
2017-03-01T01:38:32.658Z,18.44
2017-03-01T01:39:32.590Z,18.46
2017-03-01T01:40:37.590Z,18.43
2017-03-01T01:41:42.626Z,18.43
2017-03-01T01:42:44.028Z,18.44
2017-03-01T01:43:37.759Z,18.43
2017-03-01T01:44:52.821Z,18.43
2017-03-01T01:45:35.998Z,18.44
2017-03-01T01:46:39.819Z,18.51
2017-03-01T01:47:38.081Z,18.43
2017-03-01T01:48:48.297Z,18.43
2017-03-01T01:49:42.585Z,18.43
2017-03-01T01:50:42.330Z,18.43
2017-03-01T01:51:42.120Z,18.42
2017-03-01T01:52:38.409Z,18.42
2017-03-01T01:53:36.913Z,18.43
2017-03-01T01:54:38.027Z,18.43
2017-03-01T01:55:38.139Z,18.95
2017-03-01T01:56:34.512Z,18.99
2017-03-01T01:57:46.476Z,19.03
2017-03-01T01:58:40.397Z,19.01
2017-03-01T01:59:32.409Z,18.53
2017-03-01T02:00:42.561Z,18.48
2017-03-01T02:01:44.238Z,18.46
2017-03-01T02:02:34.138Z,18.45
2017-03-01T02:03:42.775Z,18.44
2017-03-01T02:04:38.443Z,18.44
2017-03-01T02:05:42.014Z,18.44
2017-03-01T02:06:37.636Z,18.43
2017-03-01T02:07:43.341Z,18.47
2017-03-01T02:08:39.497Z,18.46
2017-03-01T02:09:45.158Z,18.43
2017-03-01T02:10:39.226Z,18.43
2017-03-01T02:11:33.530Z,18.43
2017-03-01T02:12:38.193Z,18.50
2017-03-01T02:13:43.189Z,18.42
2017-03-01T02:14:37.085Z,18.43
2017-03-01T02:15:41.997Z,18.43
2017-03-01T02:16:42.510Z,18.43
2017-03-01T02:17:38.402Z,18.42
2017-03-01T02:18:39.208Z,18.42
2017-03-01T02:19:39.999Z,18.42
2017-03-01T02:20:43.637Z,18.42
2017-03-01T02:21:46.280Z,18.42
2017-03-01T02:22:42.619Z,18.42
2017-03-01T02:23:47.849Z,18.42
2017-03-01T02:24:46.786Z,18.41
2017-03-01T02:25:40.864Z,18.42
2017-03-01T02:26:35.996Z,18.42
2017-03-01T02:27:42.045Z,18.42
2017-03-01T02:28:37.894Z,18.42
2017-03-01T02:29:40.916Z,18.42
2017-03-01T02:30:37.842Z,18.42
2017-03-01T02:31:42.414Z,18.41
2017-03-01T02:32:37.829Z,18.42
2017-03-01T02:33:42.161Z,18.42
2017-03-01T02:34:52.547Z,18.42
2017-03-01T02:35:36.121Z,18.41
2017-03-01T02:36:32.299Z,18.41
2017-03-01T02:37:38.059Z,18.41
2017-03-01T02:38:33.772Z,18.41
2017-03-01T02:39:34.080Z,18.57
2017-03-01T02:40:37.762Z,18.46
2017-03-01T02:41:34.107Z,18.44
2017-03-01T02:42:38.408Z,18.42
2017-03-01T02:43:36.923Z,18.42
2017-03-01T02:44:34.170Z,18.41
2017-03-01T02:45:46.271Z,18.42
2017-03-01T02:46:42.651Z,18.42
2017-03-01T02:47:39.024Z,18.47
2017-03-01T02:48:40.747Z,18.42
2017-03-01T02:49:36.954Z,18.41
2017-03-01T02:50:34.102Z,18.47
2017-03-01T02:51:42.672Z,18.41
2017-03-01T02:52:39.159Z,18.45
2017-03-01T02:53:36.101Z,18.41
2017-03-01T02:54:38.083Z,18.42
2017-03-01T02:55:38.193Z,18.43
2017-03-01T02:56:46.625Z,18.41
2017-03-01T02:57:34.145Z,18.45
2017-03-01T02:58:39.052Z,18.41
2017-03-01T02:59:38.344Z,18.41
2017-03-01T03:00:42.132Z,18.41
2017-03-01T03:01:42.060Z,18.42
2017-03-01T03:02:38.447Z,18.45
2017-03-01T03:03:39.277Z,18.42
2017-03-01T03:04:37.828Z,18.41
2017-03-01T03:05:36.949Z,18.42
2017-03-01T03:06:33.395Z,18.47
2017-03-01T03:07:42.447Z,18.41
2017-03-01T03:08:33.800Z,18.49
2017-03-01T03:09:38.360Z,18.41
2017-03-01T03:10:35.856Z,18.93
2017-03-01T03:11:35.180Z,18.97
2017-03-01T03:12:38.939Z,18.99
2017-03-01T03:13:32.124Z,19.02
2017-03-01T03:14:33.757Z,19.00
2017-03-01T03:15:32.937Z,18.51
2017-03-01T03:16:41.978Z,18.47
2017-03-01T03:17:33.937Z,18.44
2017-03-01T03:18:33.592Z,18.43
2017-03-01T03:19:33.696Z,18.94
2017-03-01T03:20:46.917Z,18.98
2017-03-01T03:21:46.591Z,19.00
2017-03-01T03:22:31.882Z,18.52
2017-03-01T03:23:37.750Z,18.47
2017-03-01T03:24:42.422Z,18.45
2017-03-01T03:25:47.751Z,18.43
2017-03-01T03:26:42.744Z,18.42
2017-03-01T03:27:32.748Z,18.51
2017-03-01T03:28:38.297Z,18.42
2017-03-01T03:29:38.161Z,18.50
2017-03-01T03:30:34.065Z,18.47
2017-03-01T03:31:47.603Z,18.42
2017-03-01T03:32:30.382Z,18.42
2017-03-01T03:33:33.428Z,18.46
2017-03-01T03:34:46.193Z,18.42
2017-03-01T03:35:39.473Z,18.42
2017-03-01T03:36:42.321Z,18.42
2017-03-01T03:37:38.177Z,18.43
2017-03-01T03:38:42.874Z,18.41
2017-03-01T03:39:41.941Z,18.41
2017-03-01T03:40:33.985Z,18.41
2017-03-01T03:41:42.141Z,18.41
2017-03-01T03:42:37.850Z,18.41
2017-03-01T03:43:37.825Z,18.41
2017-03-01T03:44:42.556Z,18.41
2017-03-01T03:45:43.037Z,18.41
2017-03-01T03:46:47.397Z,18.41
2017-03-01T03:47:37.753Z,18.40
2017-03-01T03:48:42.446Z,18.41
2017-03-01T03:49:41.000Z,18.41
2017-03-01T03:50:42.546Z,18.41
2017-03-01T03:51:33.756Z,18.41
2017-03-01T03:52:34.402Z,18.41
2017-03-01T03:53:42.974Z,18.41
2017-03-01T03:54:46.389Z,18.41
2017-03-01T03:55:31.695Z,18.40
2017-03-01T03:56:38.288Z,18.40
2017-03-01T03:57:32.170Z,18.40
2017-03-01T03:58:42.409Z,18.40
2017-03-01T03:59:38.198Z,18.45
2017-03-01T04:00:34.365Z,18.92
2017-03-01T04:01:38.422Z,18.97
2017-03-01T04:02:27.862Z,18.99
2017-03-01T04:03:48.128Z,19.01
2017-03-01T04:04:38.716Z,18.51
2017-03-01T04:05:40.938Z,18.47
2017-03-01T04:06:42.089Z,18.43
2017-03-01T04:07:46.838Z,18.43
2017-03-01T04:08:41.897Z,18.42
2017-03-01T04:09:41.809Z,18.42
2017-03-01T04:10:43.770Z,18.40
2017-03-01T04:11:40.266Z,18.41
2017-03-01T04:12:45.515Z,18.41
2017-03-01T04:13:39.192Z,18.40
2017-03-01T04:14:33.804Z,18.40
2017-03-01T04:15:42.795Z,18.40
2017-03-01T04:16:48.735Z,18.40
2017-03-01T04:17:48.324Z,18.40
2017-03-01T04:18:37.631Z,18.40
2017-03-01T04:19:33.909Z,18.40
2017-03-01T04:20:42.193Z,18.40
2017-03-01T04:21:42.133Z,18.40
2017-03-01T04:22:46.919Z,18.40
2017-03-01T04:23:42.166Z,18.40
2017-03-01T04:24:43.586Z,18.40
2017-03-01T04:25:32.952Z,18.41
2017-03-01T04:26:42.852Z,18.40
2017-03-01T04:27:39.082Z,18.40
2017-03-01T04:28:43.466Z,18.92
2017-03-01T04:29:42.703Z,18.96
2017-03-01T04:30:32.794Z,18.98
2017-03-01T04:31:47.522Z,19.00
2017-03-01T04:32:42.314Z,19.02
2017-03-01T04:33:39.206Z,19.01
2017-03-01T04:34:42.364Z,18.51
2017-03-01T04:35:43.877Z,18.46
2017-03-01T04:36:34.164Z,18.46
2017-03-01T04:37:42.542Z,18.42
2017-03-01T04:38:37.539Z,18.41
2017-03-01T04:39:33.437Z,18.46
2017-03-01T04:40:43.961Z,18.41
2017-03-01T04:41:36.808Z,18.40
2017-03-01T04:42:33.517Z,18.40
2017-03-01T04:43:33.814Z,18.91
2017-03-01T04:44:28.583Z,18.60
2017-03-01T04:45:52.546Z,18.46
2017-03-01T04:46:37.901Z,18.44
2017-03-01T04:47:34.091Z,18.42
2017-03-01T04:48:37.822Z,18.41
2017-03-01T04:49:33.016Z,18.40
2017-03-01T04:50:37.984Z,18.40
2017-03-01T04:51:37.237Z,18.40
2017-03-01T04:52:46.273Z,18.39
2017-03-01T04:53:42.013Z,18.40
2017-03-01T04:54:37.845Z,18.40
2017-03-01T04:55:36.572Z,18.40
2017-03-01T04:56:44.031Z,18.40
2017-03-01T04:57:42.921Z,18.40
2017-03-01T04:58:39.017Z,18.42
2017-03-01T04:59:37.837Z,18.91
2017-03-01T05:00:36.892Z,18.96
2017-03-01T05:01:33.757Z,18.97
2017-03-01T05:02:42.282Z,19.01
2017-03-01T05:03:48.203Z,19.00
2017-03-01T05:04:37.783Z,18.56
2017-03-01T05:05:43.566Z,18.45
2017-03-01T05:06:42.957Z,18.43
2017-03-01T05:07:34.465Z,18.42
2017-03-01T05:08:39.481Z,18.41
2017-03-01T05:09:50.524Z,18.40
2017-03-01T05:10:38.807Z,18.40
2017-03-01T05:11:42.251Z,18.40
2017-03-01T05:12:37.718Z,18.40
2017-03-01T05:13:38.528Z,18.42
2017-03-01T05:14:42.565Z,18.92
2017-03-01T05:15:38.091Z,18.96
2017-03-01T05:16:38.398Z,18.98
2017-03-01T05:17:47.828Z,18.99
2017-03-01T05:18:38.429Z,19.01
2017-03-01T05:19:43.984Z,18.54
2017-03-01T05:20:43.168Z,18.46
2017-03-01T05:21:32.331Z,18.43
2017-03-01T05:22:37.207Z,18.42
2017-03-01T05:23:48.376Z,18.41
2017-03-01T05:24:44.359Z,18.41
2017-03-01T05:25:49.563Z,18.41
2017-03-01T05:26:44.519Z,18.40
2017-03-01T05:27:33.113Z,18.40
2017-03-01T05:28:40.027Z,18.40
2017-03-01T05:29:46.295Z,18.40
2017-03-01T05:30:32.118Z,18.40
2017-03-01T05:31:42.405Z,18.40
2017-03-01T05:32:37.803Z,18.40
2017-03-01T05:33:33.325Z,18.39
2017-03-01T05:34:26.441Z,18.90
2017-03-01T05:35:38.188Z,18.95
2017-03-01T05:36:48.140Z,18.97
2017-03-01T05:37:36.834Z,18.99
2017-03-01T05:38:35.993Z,19.00
2017-03-01T05:39:43.080Z,19.00
2017-03-01T05:41:36.402Z,19.00
2017-03-01T05:42:38.553Z,19.02
2017-03-01T05:43:37.531Z,19.03
2017-03-01T05:44:32.911Z,18.51
2017-03-01T05:45:37.857Z,18.46
2017-03-01T05:46:36.445Z,18.43
2017-03-01T05:47:34.919Z,18.42
2017-03-01T05:48:37.266Z,18.41
2017-03-01T05:49:47.775Z,18.40
2017-03-01T05:50:36.924Z,18.40
2017-03-01T05:51:43.605Z,18.40
2017-03-01T05:52:38.809Z,18.39
2017-03-01T05:53:36.226Z,18.39
2017-03-01T05:54:43.310Z,18.39
2017-03-01T05:55:32.891Z,18.46
2017-03-01T05:56:42.555Z,18.38
2017-03-01T05:57:33.686Z,18.45
2017-03-01T05:58:52.300Z,18.37
2017-03-01T05:59:46.825Z,18.38
2017-03-01T06:00:36.978Z,18.38
2017-03-01T06:01:46.449Z,18.37
2017-03-01T06:02:42.886Z,18.38
2017-03-01T06:03:34.291Z,18.38
2017-03-01T06:04:39.561Z,18.38
2017-03-01T06:05:40.470Z,18.38
2017-03-01T06:06:46.328Z,18.37
2017-03-01T06:07:33.293Z,18.38
2017-03-01T06:08:42.727Z,18.37
2017-03-01T06:09:48.117Z,18.39
2017-03-01T06:10:38.444Z,18.37
2017-03-01T06:11:38.052Z,18.44
2017-03-01T06:12:46.504Z,18.38
2017-03-01T06:13:31.925Z,18.37
2017-03-01T06:14:48.106Z,18.37
2017-03-01T06:15:38.851Z,18.36
2017-03-01T06:16:40.552Z,18.88
2017-03-01T06:17:48.651Z,18.94
2017-03-01T06:18:47.503Z,18.97
2017-03-01T06:19:45.841Z,18.97
2017-03-01T06:20:43.620Z,18.98
2017-03-01T06:21:38.354Z,19.00
2017-03-01T06:22:39.730Z,19.00
2017-03-01T06:23:42.470Z,19.01
2017-03-01T06:24:42.328Z,19.02
2017-03-01T06:25:43.552Z,19.03
2017-03-01T06:26:43.661Z,19.02
2017-03-01T06:27:34.745Z,19.03
2017-03-01T06:28:40.591Z,19.03
2017-03-01T06:29:32.717Z,19.03
2017-03-01T06:30:34.152Z,19.02
2017-03-01T06:31:32.454Z,19.01
2017-03-01T06:32:34.831Z,18.66
2017-03-01T06:33:39.688Z,18.50
2017-03-01T06:34:31.982Z,18.44
2017-03-01T06:35:43.068Z,18.42
2017-03-01T06:36:43.638Z,18.47
2017-03-01T06:37:43.685Z,18.40
2017-03-01T06:38:42.701Z,18.40
2017-03-01T06:39:37.737Z,18.39
2017-03-01T06:40:46.764Z,18.39
2017-03-01T06:41:38.918Z,18.39
2017-03-01T06:42:48.328Z,18.39
2017-03-01T06:43:43.121Z,18.39
2017-03-01T06:44:48.163Z,18.39
2017-03-01T06:45:37.878Z,18.40
2017-03-01T06:46:32.694Z,18.39
2017-03-01T06:47:18.201Z,18.40
2017-03-01T06:48:26.285Z,18.40
2017-03-01T06:49:18.755Z,18.39
2017-03-01T06:50:21.183Z,18.40
2017-03-01T06:51:18.279Z,18.91
2017-03-01T06:52:15.684Z,18.96
2017-03-01T06:53:14.817Z,18.67
2017-03-01T06:54:21.516Z,18.48
2017-03-01T06:55:19.401Z,18.50
2017-03-01T06:56:25.952Z,18.42
2017-03-01T06:57:19.029Z,18.41
2017-03-01T06:58:16.965Z,18.40
2017-03-01T06:59:21.116Z,18.92
2017-03-01T07:00:19.101Z,18.96
2017-03-01T07:01:20.226Z,18.99
2017-03-01T07:02:20.153Z,18.99
2017-03-01T07:03:25.126Z,18.49
2017-03-01T07:04:18.082Z,18.45
2017-03-01T07:05:19.820Z,18.43
2017-03-01T07:06:21.148Z,18.42
2017-03-01T07:07:27.082Z,18.41
2017-03-01T07:08:16.987Z,18.41
2017-03-01T07:09:24.164Z,18.40
2017-03-01T07:10:18.374Z,18.39
2017-03-01T07:11:19.230Z,18.39
2017-03-01T07:12:23.717Z,18.39
2017-03-01T07:13:22.421Z,18.39
2017-03-01T07:14:21.647Z,18.40
2017-03-01T07:15:19.991Z,18.39
2017-03-01T07:16:16.524Z,18.39
2017-03-01T07:17:18.779Z,18.39
2017-03-01T07:18:20.404Z,18.39
2017-03-01T07:19:42.064Z,18.39
2017-03-01T07:20:37.814Z,18.38
2017-03-01T07:21:37.215Z,18.38
2017-03-01T07:22:39.244Z,18.40
2017-03-01T07:23:32.278Z,18.39
2017-03-01T07:24:33.374Z,18.39
2017-03-01T07:25:33.702Z,18.41
2017-03-01T07:26:37.858Z,18.39
2017-03-01T07:27:33.989Z,18.39
2017-03-01T07:28:32.680Z,18.39
2017-03-01T07:29:28.398Z,18.39
2017-03-01T07:30:46.574Z,18.39
2017-03-01T07:31:37.772Z,18.40
2017-03-01T07:32:43.726Z,18.40
2017-03-01T07:33:33.506Z,18.39
2017-03-01T07:34:38.122Z,18.39
2017-03-01T07:35:37.799Z,18.40
2017-03-01T07:36:34.225Z,18.43
2017-03-01T07:37:42.147Z,18.39
2017-03-01T07:38:38.419Z,18.42
2017-03-01T07:39:43.730Z,18.40
2017-03-01T07:40:40.070Z,18.39
2017-03-01T07:41:46.235Z,18.39
2017-03-01T07:42:38.410Z,18.39
2017-03-01T07:43:46.306Z,18.39
2017-03-01T07:44:42.617Z,18.39
2017-03-01T07:45:33.030Z,18.44
2017-03-01T07:46:35.401Z,18.40
2017-03-01T07:47:34.259Z,18.40
2017-03-01T07:48:45.832Z,18.40
2017-03-01T07:49:40.558Z,18.40
2017-03-01T07:50:36.985Z,18.41
2017-03-01T07:51:46.115Z,18.41
2017-03-01T07:52:38.938Z,18.42
2017-03-01T07:53:42.021Z,18.41
2017-03-01T07:54:34.017Z,18.43
2017-03-01T07:55:43.513Z,18.42
2017-03-01T07:56:48.767Z,18.45
2017-03-01T07:57:43.566Z,18.42
2017-03-01T07:58:31.999Z,18.42
2017-03-01T07:59:46.271Z,18.42
2017-03-01T08:00:38.633Z,18.43
2017-03-01T08:01:44.042Z,18.43
2017-03-01T08:02:32.303Z,18.43
2017-03-01T08:03:43.769Z,18.47
2017-03-01T08:04:33.638Z,18.42
2017-03-01T08:05:38.039Z,18.41
2017-03-01T08:06:41.254Z,18.39
2017-03-01T08:07:37.830Z,18.36
2017-03-01T08:08:40.621Z,18.35
2017-03-01T08:09:46.365Z,18.34
2017-03-01T08:10:42.777Z,18.31
2017-03-01T08:11:38.822Z,18.35
2017-03-01T08:12:39.469Z,18.31
2017-03-01T08:13:32.167Z,18.29
2017-03-01T08:14:38.519Z,18.29
2017-03-01T08:15:42.333Z,18.29
2017-03-01T08:16:42.572Z,18.29
2017-03-01T08:17:38.242Z,18.30
2017-03-01T08:18:34.872Z,18.30
2017-03-01T08:19:38.985Z,18.32
2017-03-01T08:20:39.894Z,18.32
2017-03-01T08:21:38.185Z,18.36
2017-03-01T08:22:52.662Z,18.33
2017-03-01T08:23:37.952Z,18.34
2017-03-01T08:24:42.043Z,18.35
2017-03-01T08:25:32.660Z,18.35
2017-03-01T08:26:42.056Z,18.36
2017-03-01T08:27:37.647Z,18.36
2017-03-01T08:28:38.293Z,18.37
2017-03-01T08:29:28.106Z,18.38
2017-03-01T08:30:36.304Z,18.36
2017-03-01T08:31:36.357Z,18.39
2017-03-01T08:32:38.172Z,18.38
2017-03-01T08:33:42.543Z,18.39
2017-03-01T08:34:37.688Z,18.39
2017-03-01T08:35:42.753Z,18.38
2017-03-01T08:36:47.963Z,18.38
2017-03-01T08:37:41.980Z,18.37
2017-03-01T08:38:28.376Z,18.42
2017-03-01T08:39:52.081Z,18.37
2017-03-01T08:40:41.458Z,18.36
2017-03-01T08:41:40.482Z,18.35
2017-03-01T08:42:42.763Z,18.35
2017-03-01T08:43:36.546Z,18.35
2017-03-01T08:44:36.815Z,18.35
2017-03-01T08:45:43.548Z,18.34
2017-03-01T08:46:42.481Z,18.35
2017-03-01T08:47:39.787Z,18.35
2017-03-01T08:48:38.617Z,18.87
2017-03-01T08:49:41.597Z,18.92
2017-03-01T08:50:43.299Z,18.44
2017-03-01T08:51:33.965Z,18.41
2017-03-01T08:52:43.807Z,18.40
2017-03-01T08:53:42.700Z,18.40
2017-03-01T08:54:42.517Z,18.41
2017-03-01T08:55:38.394Z,18.40
2017-03-01T08:56:46.349Z,18.41
2017-03-01T08:57:35.159Z,18.41
2017-03-01T08:58:39.541Z,18.42
2017-03-01T08:59:35.674Z,18.42
2017-03-01T09:00:43.106Z,18.45
2017-03-01T09:01:33.870Z,18.48
2017-03-01T09:02:36.081Z,18.42
2017-03-01T09:03:38.308Z,18.42
2017-03-01T09:04:38.727Z,18.43
2017-03-01T09:05:38.079Z,18.42
2017-03-01T09:06:44.037Z,18.43
2017-03-01T09:07:46.369Z,18.43
2017-03-01T09:08:34.278Z,18.42
2017-03-01T09:09:44.259Z,18.43
2017-03-01T09:10:35.520Z,18.43
2017-03-01T09:11:33.513Z,18.47
2017-03-01T09:12:39.223Z,18.43
2017-03-01T09:13:37.801Z,18.42
2017-03-01T09:14:42.531Z,18.44
2017-03-01T09:15:34.122Z,18.43
2017-03-01T09:16:43.803Z,18.44
2017-03-01T09:17:33.777Z,18.43
2017-03-01T09:18:42.780Z,18.43
2017-03-01T09:19:42.118Z,18.43
2017-03-01T09:20:44.185Z,18.43
2017-03-01T09:21:39.394Z,18.43
2017-03-01T09:23:34.255Z,18.44
2017-03-01T09:24:46.962Z,18.44
2017-03-01T09:25:41.190Z,18.45
2017-03-01T09:26:40.400Z,18.46
2017-03-01T09:27:32.690Z,18.44
2017-03-01T09:28:43.598Z,18.44
2017-03-01T09:29:37.996Z,18.45
2017-03-01T09:30:48.336Z,18.44
2017-03-01T09:31:42.795Z,18.44
2017-03-01T09:32:39.955Z,18.45
2017-03-01T09:33:34.826Z,18.45
2017-03-01T09:34:42.722Z,18.46
2017-03-01T09:35:37.932Z,18.45
2017-03-01T09:36:43.821Z,18.45
2017-03-01T09:37:34.735Z,18.45
2017-03-01T09:38:43.434Z,18.45
2017-03-01T09:39:42.301Z,18.45
2017-03-01T09:40:39.402Z,18.44
2017-03-01T09:41:39.921Z,18.96
2017-03-01T09:42:53.044Z,19.00
2017-03-01T09:43:37.661Z,19.05
2017-03-01T09:44:43.344Z,19.06
2017-03-01T09:45:39.071Z,18.54
2017-03-01T09:46:42.512Z,18.51
2017-03-01T09:47:38.877Z,18.49
2017-03-01T09:48:53.490Z,18.48
2017-03-01T09:49:48.021Z,18.47
2017-03-01T09:50:38.178Z,18.46
2017-03-01T09:51:38.152Z,18.46
2017-03-01T09:52:52.840Z,18.46
2017-03-01T09:53:46.691Z,18.46
2017-03-01T09:54:42.103Z,18.46
2017-03-01T09:55:46.228Z,18.46
2017-03-01T09:56:37.644Z,18.46
2017-03-01T09:57:38.990Z,18.45
2017-03-01T09:58:38.501Z,18.46
2017-03-01T09:59:38.169Z,18.45
2017-03-01T10:00:41.103Z,18.46
2017-03-01T10:01:48.451Z,18.45
2017-03-01T10:02:46.986Z,18.45
2017-03-01T10:03:45.499Z,18.46
2017-03-01T10:04:34.523Z,18.45
2017-03-01T10:05:48.482Z,18.45
2017-03-01T10:06:34.402Z,18.46
2017-03-01T10:07:52.183Z,18.45
2017-03-01T10:08:46.157Z,18.45
2017-03-01T10:09:52.539Z,18.45
2017-03-01T10:10:41.510Z,18.45
2017-03-01T10:11:38.446Z,18.45
2017-03-01T10:12:38.041Z,18.45
2017-03-01T10:13:42.042Z,18.45
2017-03-01T10:14:37.979Z,18.45
2017-03-01T10:15:38.893Z,18.52
2017-03-01T10:16:32.523Z,18.45
2017-03-01T10:17:42.988Z,18.45
2017-03-01T10:18:36.257Z,18.45
2017-03-01T10:19:38.758Z,18.46
2017-03-01T10:20:38.406Z,18.45
2017-03-01T10:21:43.741Z,18.46
2017-03-01T10:22:39.352Z,18.95
2017-03-01T10:23:39.210Z,18.99
2017-03-01T10:24:52.935Z,19.03
2017-03-01T10:25:48.711Z,19.04
2017-03-01T10:26:43.594Z,19.05
2017-03-01T10:27:44.086Z,19.05
2017-03-01T10:28:39.111Z,18.57
2017-03-01T10:29:33.905Z,18.51
2017-03-01T10:30:39.097Z,18.48
2017-03-01T10:31:33.807Z,18.47
2017-03-01T10:32:42.374Z,18.98
2017-03-01T10:33:39.337Z,19.02
2017-03-01T10:34:39.724Z,19.04
2017-03-01T10:35:34.225Z,19.03
2017-03-01T10:36:38.425Z,19.06
2017-03-01T10:37:42.385Z,19.06
2017-03-01T10:38:41.892Z,19.06
2017-03-01T10:39:47.203Z,19.05
2017-03-01T10:40:36.811Z,19.06
2017-03-01T10:41:37.807Z,19.06
2017-03-01T10:42:46.949Z,19.05
2017-03-01T10:43:32.054Z,19.06
2017-03-01T10:44:37.788Z,19.07
2017-03-01T10:45:39.717Z,19.06
2017-03-01T10:46:49.139Z,19.08
2017-03-01T10:47:43.546Z,19.07
2017-03-01T10:48:46.632Z,19.06
2017-03-01T10:49:37.982Z,19.07
2017-03-01T10:50:31.845Z,19.07
2017-03-01T10:51:33.578Z,19.08
2017-03-01T10:52:36.625Z,19.07
2017-03-01T10:53:39.952Z,18.67
2017-03-01T10:54:39.200Z,18.56
2017-03-01T10:55:44.949Z,18.51
2017-03-01T10:56:39.173Z,18.49
2017-03-01T10:57:42.179Z,18.47
2017-03-01T10:58:44.180Z,18.46
2017-03-01T10:59:33.816Z,18.45
2017-03-01T11:00:38.481Z,18.44
2017-03-01T11:01:34.289Z,18.44
2017-03-01T11:02:43.400Z,18.44
2017-03-01T11:03:34.253Z,18.44
2017-03-01T11:04:38.471Z,18.44
2017-03-01T11:05:46.890Z,18.44
2017-03-01T11:06:37.103Z,18.44
2017-03-01T11:07:48.191Z,18.44
2017-03-01T11:08:41.946Z,18.45
2017-03-01T11:09:37.253Z,18.43
2017-03-01T11:10:46.533Z,18.44
2017-03-01T11:11:38.662Z,18.49
2017-03-01T11:12:42.190Z,18.43
2017-03-01T11:13:43.852Z,18.44
2017-03-01T11:14:47.225Z,18.44
2017-03-01T11:15:40.758Z,18.44
2017-03-01T11:16:46.541Z,18.44
2017-03-01T11:17:38.111Z,18.44
2017-03-01T11:18:34.374Z,18.44
2017-03-01T11:19:43.492Z,18.45
2017-03-01T11:20:33.779Z,18.48
2017-03-01T11:21:45.392Z,18.44
2017-03-01T11:22:37.795Z,18.43
2017-03-01T11:23:47.779Z,18.44
2017-03-01T11:24:46.442Z,18.43
2017-03-01T11:25:39.913Z,18.43
2017-03-01T11:26:48.553Z,18.43
2017-03-01T11:27:42.587Z,18.43
2017-03-01T11:28:42.707Z,18.43
2017-03-01T11:29:34.075Z,18.43
2017-03-01T11:30:44.038Z,18.44
2017-03-01T11:31:42.890Z,18.42
2017-03-01T11:32:37.990Z,18.43
2017-03-01T11:33:26.959Z,18.96
2017-03-01T11:34:51.555Z,18.99
2017-03-01T11:35:46.998Z,19.01
2017-03-01T11:36:41.302Z,19.05
2017-03-01T11:37:42.061Z,19.05
2017-03-01T11:38:52.540Z,19.06
2017-03-01T11:39:42.399Z,19.06
2017-03-01T11:40:38.203Z,19.06
2017-03-01T11:41:52.952Z,18.56
2017-03-01T11:42:37.240Z,18.51
2017-03-01T11:43:47.566Z,18.48
2017-03-01T11:44:27.955Z,18.48
2017-03-01T11:45:50.034Z,18.48
2017-03-01T11:46:48.569Z,18.46
2017-03-01T11:47:37.731Z,18.46
2017-03-01T11:48:42.573Z,18.46
2017-03-01T11:49:38.612Z,18.46
2017-03-01T11:50:47.050Z,18.46
2017-03-01T11:51:43.232Z,18.45
2017-03-01T11:52:42.965Z,18.46
2017-03-01T11:53:42.850Z,18.97
2017-03-01T11:54:53.204Z,18.51
2017-03-01T11:55:46.581Z,18.48
2017-03-01T11:56:34.059Z,18.47
2017-03-01T11:57:42.754Z,18.45
2017-03-01T11:58:53.680Z,18.97
2017-03-01T11:59:43.251Z,19.01
2017-03-01T12:00:39.591Z,19.03
2017-03-01T12:01:46.346Z,19.04
2017-03-01T12:02:52.840Z,19.05
2017-03-01T12:03:46.304Z,19.06
2017-03-01T12:04:42.345Z,18.55
2017-03-01T12:05:38.926Z,18.51
2017-03-01T12:06:33.632Z,18.48
2017-03-01T12:07:43.609Z,18.47
2017-03-01T12:08:48.103Z,18.46
2017-03-01T12:09:47.141Z,18.45
2017-03-01T12:10:40.628Z,18.46
2017-03-01T12:11:40.101Z,18.45
2017-03-01T12:12:42.400Z,18.45
2017-03-01T12:13:42.856Z,18.45
2017-03-01T12:14:52.622Z,18.45
2017-03-01T12:15:36.540Z,18.45
2017-03-01T12:16:48.570Z,18.45
2017-03-01T12:17:38.010Z,18.45
2017-03-01T12:18:47.936Z,18.45
2017-03-01T12:19:37.893Z,18.45
2017-03-01T12:20:48.479Z,18.44
2017-03-01T12:21:54.215Z,18.44
2017-03-01T12:22:45.731Z,18.43
2017-03-01T12:23:38.759Z,18.44
2017-03-01T12:24:51.178Z,18.44
2017-03-01T12:25:31.884Z,18.44
2017-03-01T12:26:40.059Z,18.43
2017-03-01T12:27:36.552Z,18.44
2017-03-01T12:28:43.818Z,18.43
2017-03-01T12:29:41.918Z,18.94
2017-03-01T12:30:38.281Z,18.99
2017-03-01T12:31:53.534Z,18.52
2017-03-01T12:32:46.757Z,18.47
2017-03-01T12:33:36.587Z,18.46
2017-03-01T12:34:36.766Z,18.45
2017-03-01T12:35:43.272Z,18.47
2017-03-01T12:36:42.862Z,18.43
2017-03-01T12:37:37.687Z,18.43
2017-03-01T12:38:42.261Z,18.42
2017-03-01T12:39:46.397Z,18.41
2017-03-01T12:40:42.035Z,18.42
2017-03-01T12:41:38.006Z,18.42
2017-03-01T12:42:47.603Z,18.41
2017-03-01T12:43:42.863Z,18.41
2017-03-01T12:44:33.557Z,18.41
2017-03-01T12:45:44.349Z,18.41
2017-03-01T12:46:33.509Z,18.40
2017-03-01T12:47:52.805Z,18.41
2017-03-01T12:48:38.768Z,18.47
2017-03-01T12:49:37.381Z,18.41
2017-03-01T12:50:36.655Z,18.40
2017-03-01T12:51:43.463Z,18.41
2017-03-01T12:52:43.290Z,18.41
2017-03-01T12:53:33.818Z,18.41
2017-03-01T12:54:48.044Z,18.41